sensor_id;sensor_type;location;lat;lon;timestamp;pressure;altitude;pressure_sealevel;temperature;humidity
68301;BME280;55146;47.468;18.806;2022-12-26T00:00:17;100577.53;;;8.84;91.07
68301;BME280;55146;47.468;18.806;2022-12-26T00:02:43;100575.47;;;8.74;91.70
68301;BME280;55146;47.468;18.806;2022-12-26T00:05:09;100575.63;;;8.84;91.30
68301;BME280;55146;47.468;18.806;2022-12-26T00:07:34;100574.12;;;8.93;90.56
68301;BME280;55146;47.468;18.806;2022-12-26T00:09:59;100565.41;;;8.80;91.34
68301;BME280;55146;47.468;18.806;2022-12-26T00:12:25;100562.63;;;8.97;90.73
68301;BME280;55146;47.468;18.806;2022-12-26T00:14:50;100573.38;;;8.98;90.44
68301;BME280;55146;47.468;18.806;2022-12-26T00:17:15;100568.03;;;8.91;90.73
68301;BME280;55146;47.468;18.806;2022-12-26T00:19:41;100564.22;;;8.92;90.48
68301;BME280;55146;47.468;18.806;2022-12-26T00:22:06;100565.06;;;8.93;90.57
68301;BME280;55146;47.468;18.806;2022-12-26T00:24:32;100555.50;;;8.79;91.24
68301;BME280;55146;47.468;18.806;2022-12-26T00:26:58;100557.66;;;8.77;91.44
68301;BME280;55146;47.468;18.806;2022-12-26T00:29:23;100564.56;;;8.79;91.29
68301;BME280;55146;47.468;18.806;2022-12-26T00:31:48;100570.56;;;8.76;91.54
68301;BME280;55146;47.468;18.806;2022-12-26T00:34:14;100554.03;;;8.71;91.67
68301;BME280;55146;47.468;18.806;2022-12-26T00:36:39;100557.59;;;8.72;91.73
68301;BME280;55146;47.468;18.806;2022-12-26T00:39:04;100564.09;;;8.66;91.92
68301;BME280;55146;47.468;18.806;2022-12-26T00:41:30;100565.81;;;8.72;91.68
68301;BME280;55146;47.468;18.806;2022-12-26T00:43:56;100571.41;;;8.60;92.19
68301;BME280;55146;47.468;18.806;2022-12-26T00:46:22;100566.31;;;8.52;93.15
68301;BME280;55146;47.468;18.806;2022-12-26T00:48:48;100573.97;;;8.67;92.20
68301;BME280;55146;47.468;18.806;2022-12-26T00:51:14;100574.28;;;8.70;92.11
68301;BME280;55146;47.468;18.806;2022-12-26T00:53:39;100569.56;;;8.66;92.12
68301;BME280;55146;47.468;18.806;2022-12-26T00:56:05;100574.56;;;8.69;92.25
68301;BME280;55146;47.468;18.806;2022-12-26T00:58:31;100561.69;;;8.69;92.35
68301;BME280;55146;47.468;18.806;2022-12-26T01:01:14;100561.69;;;8.69;92.14
68301;BME280;55146;47.468;18.806;2022-12-26T01:03:40;100561.25;;;8.77;91.84
68301;BME280;55146;47.468;18.806;2022-12-26T01:06:06;100560.25;;;8.67;92.25
68301;BME280;55146;47.468;18.806;2022-12-26T01:08:31;100552.03;;;8.67;92.56
68301;BME280;55146;47.468;18.806;2022-12-26T01:10:57;100552.44;;;8.75;92.48
68301;BME280;55146;47.468;18.806;2022-12-26T01:13:22;100556.47;;;8.89;92.03
68301;BME280;55146;47.468;18.806;2022-12-26T01:15:51;100558.81;;;8.98;91.46
68301;BME280;55146;47.468;18.806;2022-12-26T01:18:18;100565.44;;;9.02;91.01
68301;BME280;55146;47.468;18.806;2022-12-26T01:20:43;100558.66;;;8.87;91.85
68301;BME280;55146;47.468;18.806;2022-12-26T01:23:09;100561.06;;;9.01;91.04
68301;BME280;55146;47.468;18.806;2022-12-26T01:25:34;100559.72;;;9.03;91.03
68301;BME280;55146;47.468;18.806;2022-12-26T01:27:59;100548.91;;;8.97;91.34
68301;BME280;55146;47.468;18.806;2022-12-26T01:30:25;100538.34;;;9.05;91.08
68301;BME280;55146;47.468;18.806;2022-12-26T01:32:50;100539.47;;;9.09;90.93
68301;BME280;55146;47.468;18.806;2022-12-26T01:35:15;100541.41;;;9.09;91.12
68301;BME280;55146;47.468;18.806;2022-12-26T01:37:41;100537.09;;;9.13;90.89
68301;BME280;55146;47.468;18.806;2022-12-26T01:40:07;100527.81;;;9.19;90.83
68301;BME280;55146;47.468;18.806;2022-12-26T01:42:38;100525.63;;;9.21;90.81
68301;BME280;55146;47.468;18.806;2022-12-26T01:45:21;100523.72;;;9.21;91.16
68301;BME280;55146;47.468;18.806;2022-12-26T01:48:20;100517.69;;;9.19;90.95
68301;BME280;55146;47.468;18.806;2022-12-26T01:53:21;100515.31;;;9.06;91.27
68301;BME280;55146;47.468;18.806;2022-12-26T01:55:53;100515.81;;;9.03;91.54
68301;BME280;55146;47.468;18.806;2022-12-26T01:58:32;100521.47;;;8.97;91.46
68301;BME280;55146;47.468;18.806;2022-12-26T02:00:58;100515.75;;;8.98;91.32
68301;BME280;55146;47.468;18.806;2022-12-26T02:03:25;100511.84;;;8.94;91.43
68301;BME280;55146;47.468;18.806;2022-12-26T02:06:10;100510.03;;;8.83;91.87
68301;BME280;55146;47.468;18.806;2022-12-26T02:08:37;100508.47;;;8.70;92.37
68301;BME280;55146;47.468;18.806;2022-12-26T02:11:09;100504.34;;;8.68;92.64
68301;BME280;55146;47.468;18.806;2022-12-26T02:13:37;100503.81;;;8.71;92.61
68301;BME280;55146;47.468;18.806;2022-12-26T02:16:06;100507.50;;;8.76;92.45
68301;BME280;55146;47.468;18.806;2022-12-26T02:18:32;100516.22;;;8.73;92.85
68301;BME280;55146;47.468;18.806;2022-12-26T02:23:51;100517.28;;;8.72;92.86
68301;BME280;55146;47.468;18.806;2022-12-26T02:57:36;100475.34;;;8.05;94.43
68301;BME280;55146;47.468;18.806;2022-12-26T03:00:24;100478.16;;;8.10;94.46
68301;BME280;55146;47.468;18.806;2022-12-26T03:03:14;100475.94;;;8.07;94.40
68301;BME280;55146;47.468;18.806;2022-12-26T03:06:03;100471.84;;;8.09;94.44
68301;BME280;55146;47.468;18.806;2022-12-26T03:08:54;100476.66;;;8.02;95.11
68301;BME280;55146;47.468;18.806;2022-12-26T03:11:42;100483.97;;;7.97;95.65
68301;BME280;55146;47.468;18.806;2022-12-26T03:14:54;100480.91;;;7.93;96.14
68301;BME280;55146;47.468;18.806;2022-12-26T03:17:32;100476.09;;;8.00;95.28
68301;BME280;55146;47.468;18.806;2022-12-26T03:20:22;100485.56;;;7.93;96.00
68301;BME280;55146;47.468;18.806;2022-12-26T03:22:53;100477.84;;;7.90;96.34
68301;BME280;55146;47.468;18.806;2022-12-26T03:25:36;100479.56;;;7.79;97.05
68301;BME280;55146;47.468;18.806;2022-12-26T03:28:22;100478.41;;;7.75;96.06
68301;BME280;55146;47.468;18.806;2022-12-26T03:30:48;100482.13;;;7.69;96.16
68301;BME280;55146;47.468;18.806;2022-12-26T03:33:23;100485.78;;;7.75;95.84
68301;BME280;55146;47.468;18.806;2022-12-26T03:41:51;100492.97;;;7.64;95.69
68301;BME280;55146;47.468;18.806;2022-12-26T03:44:53;100498.00;;;7.55;95.79
68301;BME280;55146;47.468;18.806;2022-12-26T03:47:49;100497.72;;;7.68;95.50
68301;BME280;55146;47.468;18.806;2022-12-26T03:50:59;100504.41;;;7.61;95.56
68301;BME280;55146;47.468;18.806;2022-12-26T03:54:11;100500.31;;;7.47;96.15
68301;BME280;55146;47.468;18.806;2022-12-26T03:57:04;100506.75;;;7.41;96.84
68301;BME280;55146;47.468;18.806;2022-12-26T03:59:57;100510.44;;;7.46;96.46
68301;BME280;55146;47.468;18.806;2022-12-26T04:02:45;100519.34;;;7.42;96.50
68301;BME280;55146;47.468;18.806;2022-12-26T04:05:32;100515.44;;;7.38;96.16
68301;BME280;55146;47.468;18.806;2022-12-26T04:09:07;100519.91;;;7.27;96.98
68301;BME280;55146;47.468;18.806;2022-12-26T04:11:44;100513.69;;;7.31;97.13
68301;BME280;55146;47.468;18.806;2022-12-26T04:14:48;100522.72;;;7.32;97.36
68301;BME280;55146;47.468;18.806;2022-12-26T04:20:31;100523.94;;;7.24;97.75
68301;BME280;55146;47.468;18.806;2022-12-26T04:23:05;100533.72;;;7.20;97.58
68301;BME280;55146;47.468;18.806;2022-12-26T04:25:58;100516.56;;;7.25;97.35
68301;BME280;55146;47.468;18.806;2022-12-26T04:28:45;100515.13;;;7.22;97.68
68301;BME280;55146;47.468;18.806;2022-12-26T04:31:39;100517.59;;;6.96;99.51
68301;BME280;55146;47.468;18.806;2022-12-26T04:34:33;100512.81;;;7.03;99.25
68301;BME280;55146;47.468;18.806;2022-12-26T04:37:24;100522.66;;;7.04;98.92
68301;BME280;55146;47.468;18.806;2022-12-26T04:40:21;100523.16;;;7.01;99.02
68301;BME280;55146;47.468;18.806;2022-12-26T04:43:08;100518.41;;;6.96;99.27
68301;BME280;55146;47.468;18.806;2022-12-26T04:45:53;100520.31;;;6.96;99.06
68301;BME280;55146;47.468;18.806;2022-12-26T04:48:19;100505.31;;;6.98;99.20
68301;BME280;55146;47.468;18.806;2022-12-26T04:51:03;100510.41;;;7.06;98.70
68301;BME280;55146;47.468;18.806;2022-12-26T04:53:29;100506.97;;;6.99;99.24
68301;BME280;55146;47.468;18.806;2022-12-26T04:55:54;100507.22;;;6.98;98.78
68301;BME280;55146;47.468;18.806;2022-12-26T04:58:19;100505.94;;;6.88;98.53
68301;BME280;55146;47.468;18.806;2022-12-26T05:00:49;100509.50;;;6.89;98.87
68301;BME280;55146;47.468;18.806;2022-12-26T05:03:14;100514.47;;;6.92;98.79
68301;BME280;55146;47.468;18.806;2022-12-26T05:05:58;100508.44;;;6.90;98.46
68301;BME280;55146;47.468;18.806;2022-12-26T05:08:44;100501.66;;;6.93;98.50
68301;BME280;55146;47.468;18.806;2022-12-26T05:11:30;100498.47;;;6.84;99.02
68301;BME280;55146;47.468;18.806;2022-12-26T05:13:57;100503.56;;;6.80;99.17
68301;BME280;55146;47.468;18.806;2022-12-26T05:16:23;100508.81;;;6.82;98.94
68301;BME280;55146;47.468;18.806;2022-12-26T05:19:10;100515.09;;;6.82;99.42
68301;BME280;55146;47.468;18.806;2022-12-26T05:21:55;100513.09;;;6.78;99.23
68301;BME280;55146;47.468;18.806;2022-12-26T05:24:40;100515.34;;;6.69;99.33
68301;BME280;55146;47.468;18.806;2022-12-26T05:27:32;100506.69;;;6.72;98.91
68301;BME280;55146;47.468;18.806;2022-12-26T05:30:17;100510.81;;;6.75;98.84
68301;BME280;55146;47.468;18.806;2022-12-26T05:32:43;100512.59;;;6.81;98.97
68301;BME280;55146;47.468;18.806;2022-12-26T05:35:27;100513.94;;;6.78;98.77
68301;BME280;55146;47.468;18.806;2022-12-26T05:37:52;100514.50;;;6.80;98.91
68301;BME280;55146;47.468;18.806;2022-12-26T05:40:18;100496.19;;;6.81;98.63
68301;BME280;55146;47.468;18.806;2022-12-26T05:42:44;100504.28;;;6.76;98.89
68301;BME280;55146;47.468;18.806;2022-12-26T05:45:09;100505.72;;;6.43;100.00
68301;BME280;55146;47.468;18.806;2022-12-26T05:47:34;100510.22;;;6.61;99.97
68301;BME280;55146;47.468;18.806;2022-12-26T05:50:00;100512.97;;;6.61;98.84
68301;BME280;55146;47.468;18.806;2022-12-26T05:52:25;100517.38;;;6.62;98.44
68301;BME280;55146;47.468;18.806;2022-12-26T05:54:51;100515.97;;;6.48;100.00
68301;BME280;55146;47.468;18.806;2022-12-26T05:57:16;100502.41;;;6.53;99.22
68301;BME280;55146;47.468;18.806;2022-12-26T05:59:41;100512.50;;;6.53;99.45
68301;BME280;55146;47.468;18.806;2022-12-26T06:02:07;100503.59;;;6.57;100.00
68301;BME280;55146;47.468;18.806;2022-12-26T06:04:32;100505.03;;;6.60;100.00
68301;BME280;55146;47.468;18.806;2022-12-26T06:06:59;100515.97;;;6.60;99.95
68301;BME280;55146;47.468;18.806;2022-12-26T06:09:24;100514.28;;;6.59;100.00
68301;BME280;55146;47.468;18.806;2022-12-26T06:11:50;100502.16;;;6.55;99.27
68301;BME280;55146;47.468;18.806;2022-12-26T06:14:15;100502.41;;;6.53;99.54
68301;BME280;55146;47.468;18.806;2022-12-26T06:16:40;100503.72;;;6.50;99.81
68301;BME280;55146;47.468;18.806;2022-12-26T06:19:06;100497.91;;;6.47;99.26
68301;BME280;55146;47.468;18.806;2022-12-26T06:21:32;100493.16;;;6.54;99.08
68301;BME280;55146;47.468;18.806;2022-12-26T06:23:57;100492.31;;;6.54;99.27
68301;BME280;55146;47.468;18.806;2022-12-26T06:26:22;100490.41;;;6.54;99.36
68301;BME280;55146;47.468;18.806;2022-12-26T06:28:48;100494.91;;;6.48;99.29
68301;BME280;55146;47.468;18.806;2022-12-26T06:31:22;100497.06;;;6.46;98.91
68301;BME280;55146;47.468;18.806;2022-12-26T06:33:52;100502.16;;;6.43;98.50
68301;BME280;55146;47.468;18.806;2022-12-26T06:36:20;100500.25;;;6.32;98.11
68301;BME280;55146;47.468;18.806;2022-12-26T06:38:46;100497.91;;;6.35;98.35
68301;BME280;55146;47.468;18.806;2022-12-26T06:41:14;100494.22;;;6.41;98.69
68301;BME280;55146;47.468;18.806;2022-12-26T06:43:40;100502.66;;;6.40;98.66
68301;BME280;55146;47.468;18.806;2022-12-26T06:46:08;100507.38;;;6.44;98.89
68301;BME280;55146;47.468;18.806;2022-12-26T06:48:34;100502.75;;;6.33;99.59
68301;BME280;55146;47.468;18.806;2022-12-26T06:51:09;100508.22;;;6.33;99.53
68301;BME280;55146;47.468;18.806;2022-12-26T06:53:35;100505.59;;;6.38;99.39
68301;BME280;55146;47.468;18.806;2022-12-26T06:56:15;100498.97;;;6.34;98.82
68301;BME280;55146;47.468;18.806;2022-12-26T06:58:41;100495.38;;;6.11;100.00
68301;BME280;55146;47.468;18.806;2022-12-26T07:01:11;100507.16;;;6.23;99.68
68301;BME280;55146;47.468;18.806;2022-12-26T07:03:37;100501.78;;;6.16;99.22
68301;BME280;55146;47.468;18.806;2022-12-26T07:06:10;100500.97;;;6.27;98.63
68301;BME280;55146;47.468;18.806;2022-12-26T07:08:36;100511.78;;;6.34;98.74
68301;BME280;55146;47.468;18.806;2022-12-26T07:11:01;100518.78;;;6.30;98.04
68301;BME280;55146;47.468;18.806;2022-12-26T07:13:27;100520.56;;;6.36;98.66
68301;BME280;55146;47.468;18.806;2022-12-26T07:15:52;100517.12;;;6.40;98.15
68301;BME280;55146;47.468;18.806;2022-12-26T07:18:17;100527.34;;;6.45;98.15
68301;BME280;55146;47.468;18.806;2022-12-26T07:20:43;100527.25;;;6.52;97.76
68301;BME280;55146;47.468;18.806;2022-12-26T07:23:09;100544.34;;;6.59;97.38
68301;BME280;55146;47.468;18.806;2022-12-26T07:25:36;100532.34;;;6.60;97.50
68301;BME280;55146;47.468;18.806;2022-12-26T07:28:02;100534.59;;;6.63;97.45
68301;BME280;55146;47.468;18.806;2022-12-26T07:30:27;100531.53;;;6.71;97.33
68301;BME280;55146;47.468;18.806;2022-12-26T07:32:52;100536.38;;;6.80;97.24
68301;BME280;55146;47.468;18.806;2022-12-26T07:35:18;100537.56;;;6.96;96.80
68301;BME280;55146;47.468;18.806;2022-12-26T07:37:43;100533.03;;;7.02;96.04
68301;BME280;55146;47.468;18.806;2022-12-26T07:40:10;100544.78;;;7.14;96.02
68301;BME280;55146;47.468;18.806;2022-12-26T07:42:36;100533.94;;;7.19;95.46
68301;BME280;55146;47.468;18.806;2022-12-26T07:45:01;100538.31;;;7.31;95.18
68301;BME280;55146;47.468;18.806;2022-12-26T07:47:28;100540.19;;;7.43;94.77
68301;BME280;55146;47.468;18.806;2022-12-26T07:49:53;100544.22;;;7.52;94.30
68301;BME280;55146;47.468;18.806;2022-12-26T07:52:19;100544.63;;;7.60;93.88
68301;BME280;55146;47.468;18.806;2022-12-26T07:54:44;100540.44;;;7.69;94.18
68301;BME280;55146;47.468;18.806;2022-12-26T07:57:10;100545.09;;;7.69;92.53
68301;BME280;55146;47.468;18.806;2022-12-26T07:59:35;100549.13;;;7.66;91.68
68301;BME280;55146;47.468;18.806;2022-12-26T08:02:00;100545.97;;;7.58;91.23
68301;BME280;55146;47.468;18.806;2022-12-26T08:04:32;100559.06;;;7.56;90.54
68301;BME280;55146;47.468;18.806;2022-12-26T08:06:57;100552.28;;;7.58;91.44
68301;BME280;55146;47.468;18.806;2022-12-26T08:09:22;100552.63;;;7.62;91.33
68301;BME280;55146;47.468;18.806;2022-12-26T08:11:48;100553.62;;;7.72;91.12
68301;BME280;55146;47.468;18.806;2022-12-26T08:14:14;100559.03;;;7.67;90.87
68301;BME280;55146;47.468;18.806;2022-12-26T08:16:41;100552.16;;;7.65;91.28
68301;BME280;55146;47.468;18.806;2022-12-26T08:19:07;100564.72;;;7.78;90.84
68301;BME280;55146;47.468;18.806;2022-12-26T08:21:32;100554.84;;;7.77;90.73
68301;BME280;55146;47.468;18.806;2022-12-26T08:23:57;100566.34;;;7.79;90.67
68301;BME280;55146;47.468;18.806;2022-12-26T08:26:23;100562.31;;;7.81;90.54
68301;BME280;55146;47.468;18.806;2022-12-26T08:28:49;100554.19;;;7.86;90.91
68301;BME280;55146;47.468;18.806;2022-12-26T08:31:16;100570.69;;;7.91;90.70
68301;BME280;55146;47.468;18.806;2022-12-26T08:33:42;100561.84;;;8.01;90.62
68301;BME280;55146;47.468;18.806;2022-12-26T08:36:09;100553.91;;;8.16;90.30
68301;BME280;55146;47.468;18.806;2022-12-26T08:38:36;100565.16;;;8.31;89.61
68301;BME280;55146;47.468;18.806;2022-12-26T08:41:02;100565.34;;;8.41;89.31
68301;BME280;55146;47.468;18.806;2022-12-26T08:43:27;100571.66;;;8.42;89.13
68301;BME280;55146;47.468;18.806;2022-12-26T08:46:01;100574.47;;;8.47;89.19
68301;BME280;55146;47.468;18.806;2022-12-26T08:48:27;100564.00;;;8.44;89.53
68301;BME280;55146;47.468;18.806;2022-12-26T08:51:00;100569.66;;;8.37;90.44
68301;BME280;55146;47.468;18.806;2022-12-26T08:53:28;100565.84;;;8.38;90.29
68301;BME280;55146;47.468;18.806;2022-12-26T08:55:54;100564.34;;;8.47;90.25
68301;BME280;55146;47.468;18.806;2022-12-26T08:58:21;100572.91;;;8.51;90.78
68301;BME280;55146;47.468;18.806;2022-12-26T09:00:46;100568.41;;;8.62;90.87
68301;BME280;55146;47.468;18.806;2022-12-26T09:03:13;100578.56;;;8.61;91.09
68301;BME280;55146;47.468;18.806;2022-12-26T09:05:39;100581.38;;;8.66;91.44
68301;BME280;55146;47.468;18.806;2022-12-26T09:08:04;100587.09;;;8.65;90.91
68301;BME280;55146;47.468;18.806;2022-12-26T09:10:30;100582.28;;;8.55;91.01
68301;BME280;55146;47.468;18.806;2022-12-26T09:12:55;100590.25;;;8.73;91.37
68301;BME280;55146;47.468;18.806;2022-12-26T09:15:21;100601.56;;;8.77;91.08
68301;BME280;55146;47.468;18.806;2022-12-26T09:17:46;100601.47;;;8.72;91.65
68301;BME280;55146;47.468;18.806;2022-12-26T09:20:11;100593.06;;;8.78;91.43
68301;BME280;55146;47.468;18.806;2022-12-26T09:22:37;100597.31;;;8.86;91.39
68301;BME280;55146;47.468;18.806;2022-12-26T09:25:15;100595.00;;;8.95;90.64
68301;BME280;55146;47.468;18.806;2022-12-26T09:27:41;100604.03;;;8.95;91.07
68301;BME280;55146;47.468;18.806;2022-12-26T09:30:06;100603.22;;;8.95;92.03
68301;BME280;55146;47.468;18.806;2022-12-26T09:32:33;100597.69;;;9.11;91.35
68301;BME280;55146;47.468;18.806;2022-12-26T09:34:58;100605.72;;;9.34;90.52
68301;BME280;55146;47.468;18.806;2022-12-26T09:37:24;100602.22;;;9.61;90.09
68301;BME280;55146;47.468;18.806;2022-12-26T09:39:49;100606.06;;;9.60;90.10
68301;BME280;55146;47.468;18.806;2022-12-26T09:42:40;100600.94;;;9.47;90.60
68301;BME280;55146;47.468;18.806;2022-12-26T09:45:16;100604.25;;;9.49;91.01
68301;BME280;55146;47.468;18.806;2022-12-26T09:48:07;100610.41;;;9.56;90.31
68301;BME280;55146;47.468;18.806;2022-12-26T09:50:37;100602.47;;;9.59;89.69
68301;BME280;55146;47.468;18.806;2022-12-26T09:53:11;100601.38;;;9.60;88.82
68301;BME280;55146;47.468;18.806;2022-12-26T09:55:47;100601.25;;;9.72;88.35
68301;BME280;55146;47.468;18.806;2022-12-26T09:58:30;100602.53;;;9.64;88.63
68301;BME280;55146;47.468;18.806;2022-12-26T10:01:12;100605.41;;;9.74;88.27
68301;BME280;55146;47.468;18.806;2022-12-26T10:03:47;100599.34;;;9.72;89.67
68301;BME280;55146;47.468;18.806;2022-12-26T10:06:15;100593.69;;;10.06;88.01
68301;BME280;55146;47.468;18.806;2022-12-26T10:26:18;100568.75;;;10.76;83.11
68301;BME280;55146;47.468;18.806;2022-12-26T10:29:46;100557.72;;;10.71;83.02
68301;BME280;55146;47.468;18.806;2022-12-26T10:32:05;100551.53;;;10.91;82.67
68301;BME280;55146;47.468;18.806;2022-12-26T10:37:11;100551.63;;;11.06;82.34
68301;BME280;55146;47.468;18.806;2022-12-26T10:39:51;100548.75;;;11.38;81.46
68301;BME280;55146;47.468;18.806;2022-12-26T10:42:38;100547.69;;;11.44;80.43
68301;BME280;55146;47.468;18.806;2022-12-26T10:45:31;100545.97;;;11.33;80.84
68301;BME280;55146;47.468;18.806;2022-12-26T10:48:00;100540.22;;;11.40;80.38
68301;BME280;55146;47.468;18.806;2022-12-26T10:50:30;100525.47;;;11.04;79.84
68301;BME280;55146;47.468;18.806;2022-12-26T10:52:57;100520.84;;;11.19;81.26
68301;BME280;55146;47.468;18.806;2022-12-26T10:55:31;100524.78;;;11.39;81.08
68301;BME280;55146;47.468;18.806;2022-12-26T10:58:17;100520.97;;;11.50;79.76
68301;BME280;55146;47.468;18.806;2022-12-26T11:00:43;100516.00;;;11.42;80.53
68301;BME280;55146;47.468;18.806;2022-12-26T11:03:12;100516.53;;;11.39;80.74
68301;BME280;55146;47.468;18.806;2022-12-26T11:05:58;100519.28;;;11.39;80.35
68301;BME280;55146;47.468;18.806;2022-12-26T11:08:38;100503.56;;;11.34;80.57
68301;BME280;55146;47.468;18.806;2022-12-26T11:11:13;100498.34;;;11.43;80.90
68301;BME280;55146;47.468;18.806;2022-12-26T11:13:55;100490.72;;;11.60;80.52
68301;BME280;55146;47.468;18.806;2022-12-26T11:16:24;100488.03;;;11.75;79.70
68301;BME280;55146;47.468;18.806;2022-12-26T11:18:51;100484.94;;;11.66;79.84
68301;BME280;55146;47.468;18.806;2022-12-26T11:23:46;100485.84;;;11.97;79.18
68301;BME280;55146;47.468;18.806;2022-12-26T11:31:29;100481.44;;;12.16;78.08
68301;BME280;55146;47.468;18.806;2022-12-26T11:33:58;100487.53;;;12.19;77.05
68301;BME280;55146;47.468;18.806;2022-12-26T11:36:26;100487.25;;;12.20;76.95
68301;BME280;55146;47.468;18.806;2022-12-26T11:39:01;100485.88;;;12.28;76.07
68301;BME280;55146;47.468;18.806;2022-12-26T11:44:03;100482.81;;;12.49;76.98
68301;BME280;55146;47.468;18.806;2022-12-26T11:46:41;100479.78;;;12.71;77.18
68301;BME280;55146;47.468;18.806;2022-12-26T11:49:32;100480.50;;;12.97;75.74
68301;BME280;55146;47.468;18.806;2022-12-26T11:52:00;100472.72;;;13.09;74.19
68301;BME280;55146;47.468;18.806;2022-12-26T11:54:46;100473.03;;;13.13;74.01
68301;BME280;55146;47.468;18.806;2022-12-26T11:57:17;100476.63;;;13.08;74.39
68301;BME280;55146;47.468;18.806;2022-12-26T11:59:43;100477.19;;;13.00;73.83
68301;BME280;55146;47.468;18.806;2022-12-26T12:04:47;100472.03;;;12.63;74.53
68301;BME280;55146;47.468;18.806;2022-12-26T12:07:25;100474.25;;;12.41;75.20
68301;BME280;55146;47.468;18.806;2022-12-26T12:10:04;100472.06;;;11.97;77.26
68301;BME280;55146;47.468;18.806;2022-12-26T12:15:53;100470.41;;;12.06;76.86
68301;BME280;55146;47.468;18.806;2022-12-26T12:21:19;100461.28;;;11.75;78.90
68301;BME280;55146;47.468;18.806;2022-12-26T12:26:45;100462.69;;;11.88;77.21
68301;BME280;55146;47.468;18.806;2022-12-26T12:38:28;100468.47;;;11.82;77.55
68301;BME280;55146;47.468;18.806;2022-12-26T12:43:47;100454.16;;;11.90;77.66
68301;BME280;55146;47.468;18.806;2022-12-26T12:46:44;100445.88;;;11.95;77.38
68301;BME280;55146;47.468;18.806;2022-12-26T12:55:23;100429.28;;;11.64;78.87
68301;BME280;55146;47.468;18.806;2022-12-26T13:00:37;100438.91;;;11.62;79.70
68301;BME280;55146;47.468;18.806;2022-12-26T13:05:58;100429.87;;;11.82;78.56
68301;BME280;55146;47.468;18.806;2022-12-26T13:13:46;100438.62;;;11.53;80.27
68301;BME280;55146;47.468;18.806;2022-12-26T13:16:15;100430.31;;;11.48;80.96
68301;BME280;55146;47.468;18.806;2022-12-26T13:18:55;100433.37;;;11.47;81.23
68301;BME280;55146;47.468;18.806;2022-12-26T13:21:24;100436.06;;;11.31;82.13
68301;BME280;55146;47.468;18.806;2022-12-26T13:29:43;100440.44;;;11.17;83.48
68301;BME280;55146;47.468;18.806;2022-12-26T13:32:16;100438.81;;;11.26;83.24
68301;BME280;55146;47.468;18.806;2022-12-26T13:34:44;100443.41;;;11.01;84.41
68301;BME280;55146;47.468;18.806;2022-12-26T13:40:00;100436.47;;;10.93;85.44
68301;BME280;55146;47.468;18.806;2022-12-26T13:42:38;100445.03;;;10.91;85.45
68301;BME280;55146;47.468;18.806;2022-12-26T13:50:55;100433.41;;;10.79;86.37
68301;BME280;55146;47.468;18.806;2022-12-26T13:58:52;100447.09;;;10.74;86.99
68301;BME280;55146;47.468;18.806;2022-12-26T14:06:53;100445.75;;;10.72;87.45
68301;BME280;55146;47.468;18.806;2022-12-26T14:09:27;100440.44;;;10.60;87.99
68301;BME280;55146;47.468;18.806;2022-12-26T14:12:19;100439.03;;;10.58;88.17
68301;BME280;55146;47.468;18.806;2022-12-26T14:18:42;100444.75;;;10.46;88.36
68301;BME280;55146;47.468;18.806;2022-12-26T14:21:21;100451.69;;;10.53;88.19
68301;BME280;55146;47.468;18.806;2022-12-26T14:26:47;100456.53;;;10.36;88.78
68301;BME280;55146;47.468;18.806;2022-12-26T14:29:39;100454.84;;;10.30;89.22
68301;BME280;55146;47.468;18.806;2022-12-26T14:32:27;100451.75;;;10.27;89.29
68301;BME280;55146;47.468;18.806;2022-12-26T14:35:36;100451.88;;;10.10;90.18
68301;BME280;55146;47.468;18.806;2022-12-26T14:40:58;100464.84;;;10.14;89.69
68301;BME280;55146;47.468;18.806;2022-12-26T14:43:35;100467.53;;;10.09;89.67
68301;BME280;55146;47.468;18.806;2022-12-26T14:46:53;100475.22;;;10.07;89.35
68301;BME280;55146;47.468;18.806;2022-12-26T14:48:57;100468.56;;;9.98;89.56
68301;BME280;55146;47.468;18.806;2022-12-26T14:51:29;100461.88;;;9.89;89.60
68301;BME280;55146;47.468;18.806;2022-12-26T14:56:40;100451.22;;;9.66;90.63
68301;BME280;55146;47.468;18.806;2022-12-26T14:59:30;100453.94;;;9.66;90.34
68301;BME280;55146;47.468;18.806;2022-12-26T15:07:35;100445.53;;;9.51;90.51
68301;BME280;55146;47.468;18.806;2022-12-26T15:13:18;100445.16;;;9.37;90.81
68301;BME280;55146;47.468;18.806;2022-12-26T15:21:12;100439.47;;;9.22;91.55
68301;BME280;55146;47.468;18.806;2022-12-26T15:24:02;100435.19;;;9.09;92.42
68301;BME280;55146;47.468;18.806;2022-12-26T15:26:37;100426.34;;;9.02;92.91
68301;BME280;55146;47.468;18.806;2022-12-26T15:32:08;100440.87;;;9.03;92.16
68301;BME280;55146;47.468;18.806;2022-12-26T15:38:08;100434.75;;;8.96;91.90
68301;BME280;55146;47.468;18.806;2022-12-26T15:46:21;100435.66;;;8.79;91.60
68301;BME280;55146;47.468;18.806;2022-12-26T15:57:12;100443.16;;;8.67;91.45
68301;BME280;55146;47.468;18.806;2022-12-26T16:05:06;100437.91;;;8.44;91.66
68301;BME280;55146;47.468;18.806;2022-12-26T16:07:49;100432.38;;;8.39;92.07
68301;BME280;55146;47.468;18.806;2022-12-26T16:13:20;100428.28;;;8.08;94.09
68301;BME280;55146;47.468;18.806;2022-12-26T16:15:51;100424.78;;;8.12;92.69
68301;BME280;55146;47.468;18.806;2022-12-26T16:18:24;100425.78;;;8.06;93.15
68301;BME280;55146;47.468;18.806;2022-12-26T16:20:51;100428.78;;;8.05;92.97
68301;BME280;55146;47.468;18.806;2022-12-26T16:23:39;100430.19;;;8.07;92.83
68301;BME280;55146;47.468;18.806;2022-12-26T16:26:05;100422.31;;;7.94;93.41
68301;BME280;55146;47.468;18.806;2022-12-26T16:28:38;100428.19;;;7.86;92.25
68301;BME280;55146;47.468;18.806;2022-12-26T16:31:04;100429.34;;;7.90;92.10
68301;BME280;55146;47.468;18.806;2022-12-26T16:33:38;100424.06;;;7.84;92.31